Time;durP1;ratioP1;P1;durP2;ratioP2;P2;SDS_P1;SDS_P2;PMS_P1;PMS_P2;Temp;Humidity;BMP_temperature;BMP_pressure;BME280_temperature;BME280_humidity;BME280_pressure;Samples;Min_cycle;Max_cycle;Signal;HPM_P1;HPM_P2
2023/06/26 00:01:55;;;;;;;18.73;12.85;;;;;;;21.05;90.67;94604.00;5012541;28;20208;-84
2023/06/26 00:04:21;;;;;;;15.55;11.80;;;;;;;21.39;90.39;94652.19;5012575;28;20191;-84
2023/06/26 00:06:46;;;;;;;15.68;10.93;;;;;;;21.06;90.15;94595.69;5012267;28;20510;-84
2023/06/26 00:09:12;;;;;;;17.50;11.05;;;;;;;21.29;90.19;94628.16;5013249;28;20195;-84
2023/06/26 00:11:37;;;;;;;17.92;12.18;;;;;;;21.41;89.84;94650.81;5018483;28;20168;-83
2023/06/26 00:14:03;;;;;;;16.60;11.68;;;;;;;21.42;90.18;94647.06;5018798;28;20522;-84
2023/06/26 00:16:28;;;;;;;20.70;11.20;;;;;;;21.30;90.27;94630.56;5018957;28;20186;-84
2023/06/26 00:18:53;;;;;;;14.80;10.60;;;;;;;21.42;89.53;94644.38;5018729;28;20153;-85
2023/06/26 00:21:19;;;;;;;16.65;10.43;;;;;;;21.05;90.36;94594.09;5018946;28;20195;-85
2023/06/26 00:23:45;;;;;;;15.40;11.15;;;;;;;21.42;90.05;94647.06;5018413;28;20418;-85
2023/06/26 00:26:11;;;;;;;16.73;11.82;;;;;;;21.33;90.46;94653.31;5018006;28;20482;-84
2023/06/26 00:28:36;;;;;;;13.90;10.05;;;;;;;21.07;89.83;94602.66;5018774;28;20190;-84
2023/06/26 00:31:02;;;;;;;14.37;10.90;;;;;;;21.31;89.54;94639.41;5017323;28;20421;-84
2023/06/26 00:33:27;;;;;;;16.33;9.57;;;;;;;21.34;89.69;94641.53;5017785;28;20168;-84
2023/06/26 00:35:53;;;;;;;13.90;9.48;;;;;;;21.03;90.30;94593.59;5017583;28;20156;-85
2023/06/26 00:38:18;;;;;;;12.77;9.88;;;;;;;21.31;90.26;94640.19;5018084;28;20334;-84
2023/06/26 00:40:43;;;;;;;14.02;9.18;;;;;;;21.35;89.66;94640.44;5018452;28;20165;-85
2023/06/26 00:43:09;;;;;;;14.13;9.93;;;;;;;20.97;90.36;94585.88;5018531;28;20413;-85
2023/06/26 00:45:34;;;;;;;12.80;10.35;;;;;;;21.11;90.80;94635.00;5016201;28;20954;-85
2023/06/26 00:48:01;;;;;;;13.30;11.03;;;;;;;20.81;91.50;94633.41;5033008;28;20996;-84
2023/06/26 00:50:27;;;;;;;14.25;9.95;;;;;;;20.89;92.21;94632.78;5018816;28;20287;-84
2023/06/26 00:52:54;;;;;;;12.25;9.13;;;;;;;20.74;91.84;94598.13;5033633;28;20176;-85
2023/06/26 00:55:19;;;;;;;13.50;9.93;;;;;;;20.94;91.33;94605.97;5018949;28;20151;-84
2023/06/26 00:57:45;;;;;;;13.55;8.63;;;;;;;21.15;90.49;94627.22;5018201;28;20216;-84
2023/06/26 01:00:12;;;;;;;12.18;9.38;;;;;;;21.19;90.77;94625.63;5018425;28;20176;-85
2023/06/26 01:02:38;;;;;;;12.02;8.88;;;;;;;21.22;90.60;94625.03;5018566;28;20195;-85
2023/06/26 01:05:06;;;;;;;12.30;8.57;;;;;;;20.99;90.58;94589.88;5018268;28;20192;-85
2023/06/26 01:07:36;;;;;;;11.68;8.45;;;;;;;21.21;90.22;94615.41;5018643;28;20168;-85
2023/06/26 01:10:06;;;;;;;14.48;9.02;;;;;;;21.22;90.71;94617.00;5018570;28;20164;-85
2023/06/26 01:12:33;;;;;;;10.93;8.15;;;;;;;21.14;90.27;94605.00;5018394;28;20163;-84
2023/06/26 01:14:59;;;;;;;13.82;8.68;;;;;;;20.66;90.31;94537.22;5016177;28;20260;-85
2023/06/26 01:17:27;;;;;;;13.93;10.50;;;;;;;20.94;90.37;94583.75;5017363;28;20172;-85
2023/06/26 01:19:54;;;;;;;18.53;10.50;;;;;;;20.99;90.89;94605.16;5016939;28;20429;-85
2023/06/26 01:23:07;;;;;;;15.68;11.50;;;;;;;20.50;91.00;94536.53;5012937;28;20413;-85
2023/06/26 01:25:48;;;;;;;12.65;9.80;;;;;;;20.90;91.29;94593.44;4992651;28;20220;-85
2023/06/26 01:28:14;;;;;;;26.80;17.60;;;;;;;20.72;90.83;94562.84;5015565;28;20161;-85
2023/06/26 01:30:43;;;;;;;23.60;16.50;;;;;;;20.97;91.35;94601.94;5015017;28;20239;-85
2023/06/26 01:33:09;;;;;;;18.85;12.48;;;;;;;20.78;91.22;94564.38;5014816;28;20196;-85
2023/06/26 01:35:35;;;;;;;17.20;12.88;;;;;;;20.77;91.27;94561.97;5014425;28;21237;-84
2023/06/26 01:38:17;;;;;;;20.25;14.07;;;;;;;20.99;90.63;94589.09;5015078;28;20168;-84
2023/06/26 01:40:46;;;;;;;19.20;10.57;;;;;;;20.56;90.05;94519.38;5013461;28;20176;-84
2023/06/26 01:43:30;;;;;;;14.48;11.00;;;;;;;20.94;89.74;94591.78;5013459;28;20191;-85
2023/06/26 01:46:03;;;;;;;15.73;10.80;;;;;;;20.95;89.98;94593.38;5014572;28;20184;-85
2023/06/26 01:48:34;;;;;;;18.08;10.60;;;;;;;20.96;89.95;94589.63;5014911;28;20211;-85
2023/06/26 01:51:00;;;;;;;14.63;9.65;;;;;;;20.64;89.64;94556.22;5014430;28;20853;-85
2023/06/26 01:53:32;;;;;;;15.50;9.43;;;;;;;20.88;90.02;94587.56;5014459;28;20192;-85
2023/06/26 01:56:12;;;;;;;12.65;10.40;;;;;;;20.69;90.70;94566.84;5013598;28;20469;-85
2023/06/26 01:58:43;;;;;;;16.75;10.60;;;;;;;20.76;90.41;94576.47;5012876;28;20263;-85
2023/06/26 02:01:09;;;;;;;15.90;9.55;;;;;;;20.62;90.27;94550.34;5012485;28;20552;-84
2023/06/26 02:03:34;;;;;;;13.95;9.50;;;;;;;20.71;89.57;94572.75;5012212;28;20176;-84
2023/06/26 02:06:00;;;;;;;11.90;9.60;;;;;;;20.51;90.57;94556.03;5012578;28;20572;-84
2023/06/26 02:08:25;;;;;;;15.27;9.70;;;;;;;20.48;90.12;94538.69;5029376;28;20187;-85
2023/06/26 02:10:51;;;;;;;15.27;11.10;;;;;;;20.55;90.49;94565.13;5012168;28;20871;-84
2023/06/26 02:13:16;;;;;;;12.80;9.25;;;;;;;20.32;89.41;94527.28;5014404;28;20247;-85
2023/06/26 02:19:21;;;;;;;15.03;9.90;;;;;;;20.45;90.34;94543.78;5013521;28;20977;-84
2023/06/26 02:21:49;;;;;;;15.10;10.32;;;;;;;20.40;90.20;94552.69;5014066;28;20164;-84
2023/06/26 02:24:14;;;;;;;12.38;9.32;;;;;;;20.47;90.03;94569.19;5014160;28;20184;-84
2023/06/26 02:26:39;;;;;;;11.70;9.35;;;;;;;20.50;90.27;94575.84;5013856;28;20160;-85
2023/06/26 02:29:05;;;;;;;15.63;11.70;;;;;;;20.37;90.78;94579.97;5012530;28;20406;-84
2023/06/26 02:31:30;;;;;;;14.80;11.07;;;;;;;20.49;90.67;94582.28;5013942;28;20403;-85
2023/06/26 02:33:56;;;;;;;12.98;10.30;;;;;;;20.57;90.27;94584.38;5012204;28;20179;-84
2023/06/26 02:36:21;;;;;;;14.87;12.07;;;;;;;20.52;90.82;94579.84;5012836;28;20415;-84
2023/06/26 02:38:46;;;;;;;14.45;10.90;;;;;;;20.33;90.15;94554.81;5013690;28;20192;-84
2023/06/26 02:41:12;;;;;;;16.70;10.82;;;;;;;20.31;90.01;94559.66;5013615;28;20552;-84
2023/06/26 02:43:37;;;;;;;15.30;11.90;;;;;;;20.23;90.98;94557.59;5012215;28;20419;-84
2023/06/26 02:46:02;;;;;;;14.73;10.50;;;;;;;20.19;90.81;94557.31;5012503;28;20703;-84
2023/06/26 02:48:28;;;;;;;17.33;11.32;;;;;;;20.27;90.62;94564.75;5011286;28;20169;-84
2023/06/26 02:50:53;;;;;;;16.90;12.67;;;;;;;20.29;91.74;94585.88;5011669;28;20500;-84
2023/06/26 02:53:18;;;;;;;32.35;17.42;;;;;;;20.25;91.91;94576.78;5013715;28;20161;-84
2023/06/26 02:55:44;;;;;;;17.88;13.07;;;;;;;20.16;91.25;94552.53;5013160;28;20712;-84
2023/06/26 02:58:09;;;;;;;15.80;11.55;;;;;;;20.41;90.89;94591.69;5012030;28;20157;-84
2023/06/26 03:00:35;;;;;;;16.83;11.77;;;;;;;20.39;90.44;94582.34;5013231;28;20227;-84
2023/06/26 03:03:00;;;;;;;18.00;12.33;;;;;;;20.27;91.03;94591.50;5012813;28;20412;-84
2023/06/26 03:05:26;;;;;;;17.43;14.00;;;;;;;20.13;91.93;94584.38;5012136;28;20437;-84
2023/06/26 03:07:51;;;;;;;12.43;11.07;;;;;;;20.11;91.74;94575.81;5012963;28;20176;-84
2023/06/26 03:10:16;;;;;;;17.38;13.73;;;;;;;20.01;90.79;94551.81;5013221;28;20548;-84
2023/06/26 03:12:42;;;;;;;17.50;12.00;;;;;;;19.97;90.71;94543.59;5013295;28;20184;-84
2023/06/26 03:15:08;;;;;;;15.67;12.57;;;;;;;19.99;91.02;94560.13;5012657;28;20418;-84
2023/06/26 03:17:33;;;;;;;18.40;12.85;;;;;;;20.02;90.72;94553.44;5013142;28;20177;-84
2023/06/26 03:19:58;;;;;;;16.92;14.25;;;;;;;20.20;90.77;94590.22;5012333;28;20414;-84
2023/06/26 03:22:24;;;;;;;16.02;11.98;;;;;;;19.91;91.36;94545.47;5013469;28;20156;-84
2023/06/26 03:24:49;;;;;;;16.60;12.15;;;;;;;20.13;91.29;94590.53;5012204;28;20553;-82
2023/06/26 03:27:15;;;;;;;17.13;12.27;;;;;;;19.78;92.14;94578.16;5011903;28;20232;-81
2023/06/26 03:29:40;;;;;;;19.38;15.38;;;;;;;19.74;93.08;94590.44;5011304;28;20402;-80
2023/06/26 03:32:06;;;;;;;20.27;15.13;;;;;;;19.75;93.75;94593.91;5010587;28;20920;-80
2023/06/26 03:34:32;;;;;;;16.48;13.80;;;;;;;19.68;94.19;94578.19;5011607;28;20176;-86
2023/06/26 03:36:58;;;;;;;19.17;13.25;;;;;;;19.59;93.36;94548.59;5011680;28;20175;-87
2023/06/26 03:39:23;;;;;;;17.80;14.60;;;;;;;19.45;93.76;94549.44;5011932;28;20497;-87
2023/06/26 03:41:48;;;;;;;21.45;14.48;;;;;;;19.69;93.54;94573.66;5012545;28;20161;-87
2023/06/26 03:44:15;;;;;;;18.45;13.50;;;;;;;19.76;93.98;94596.31;5012008;28;20215;-87
2023/06/26 03:46:40;;;;;;;18.05;13.13;;;;;;;19.51;93.64;94538.47;5012154;28;20168;-87
2023/06/26 03:49:06;;;;;;;17.70;13.05;;;;;;;19.95;93.70;94599.97;5027624;28;20172;-87
2023/06/26 03:51:31;;;;;;;19.17;12.75;;;;;;;19.91;93.16;94566.84;5010979;28;20701;-87
2023/06/26 03:53:58;;;;;;;16.30;13.30;;;;;;;19.84;92.66;94554.88;5012401;28;20180;-89
2023/06/26 03:56:23;;;;;;;17.38;13.13;;;;;;;20.19;92.63;94600.09;5011757;28;20212;-89
2023/06/26 03:58:48;;;;;;;20.30;13.98;;;;;;;20.16;93.09;94586.47;5011315;28;20173;-88
2023/06/26 04:01:14;;;;;;;23.30;13.73;;;;;;;20.15;92.21;94568.88;5011277;28;20188;-89
2023/06/26 04:03:39;;;;;;;22.35;12.88;;;;;;;20.06;91.70;94539.25;5010197;28;20215;-88
2023/06/26 04:06:05;;;;;;;20.67;13.85;;;;;;;20.06;91.83;94523.22;5027441;28;20215;-88
2023/06/26 04:08:30;;;;;;;20.80;13.95;;;;;;;20.45;90.67;94589.25;5011967;28;20188;-86
2023/06/26 04:10:57;;;;;;;19.52;13.18;;;;;;;20.38;90.94;94562.03;5010055;28;20240;-86
2023/06/26 04:13:22;;;;;;;16.05;12.43;;;;;;;20.29;90.83;94541.22;5011253;28;20559;-86
2023/06/26 04:15:48;;;;;;;20.85;13.05;;;;;;;20.65;90.77;94592.59;5011321;28;20164;-86
2023/06/26 04:18:13;;;;;;;15.98;12.77;;;;;;;20.44;90.54;94532.31;5012086;28;20701;-86
2023/06/26 04:20:59;;;;;;;18.90;12.00;;;;;;;20.62;89.92;94531.63;5012125;28;20251;-89
2023/06/26 04:23:25;;;;;;;17.33;12.93;;;;;;;21.18;88.89;94599.91;5012092;28;20180;-88
2023/06/26 04:26:24;;;;;;;17.83;12.85;;;;;;;21.56;88.02;94607.00;5012006;28;20249;-86
2023/06/26 04:28:49;;;;;;;17.50;11.70;;;;;;;21.70;86.53;94593.72;5012660;28;20973;-82
2023/06/26 04:31:14;;;;;;;16.17;12.48;;;;;;;21.96;85.61;94608.41;5012427;28;20184;-82
2023/06/26 04:33:40;;;;;;;15.52;11.38;;;;;;;22.20;85.07;94608.38;5011455;28;20235;-84
2023/06/26 04:36:05;;;;;;;21.27;12.13;;;;;;;22.22;83.16;94613.47;5011126;28;20176;-84
2023/06/26 04:38:33;;;;;;;15.05;10.40;;;;;;;21.60;83.16;94567.03;5011078;28;20168;-83
2023/06/26 04:40:58;;;;;;;15.77;11.57;;;;;;;21.71;85.02;94576.53;5011017;28;20172;-84
2023/06/26 04:43:24;;;;;;;17.13;11.68;;;;;;;22.09;83.87;94614.94;5012101;28;20168;-84
2023/06/26 04:45:49;;;;;;;18.48;11.75;;;;;;;22.37;84.63;94605.97;5011746;28;20219;-84
2023/06/26 04:48:14;;;;;;;13.50;11.15;;;;;;;22.82;83.09;94617.94;5010988;28;20542;-84
2023/06/26 04:50:40;;;;;;;13.15;9.98;;;;;;;22.46;81.45;94581.97;5010984;28;20175;-83
2023/06/26 04:53:05;;;;;;;15.48;10.35;;;;;;;22.78;81.46;94583.91;5010893;28;20294;-84
2023/06/26 04:55:31;;;;;;;12.82;10.15;;;;;;;23.24;79.93;94616.97;5010719;28;20264;-84
2023/06/26 04:57:56;;;;;;;13.27;10.70;;;;;;;23.00;79.04;94545.69;5014565;28;20311;-84
2023/06/26 05:00:22;;;;;;;15.40;10.82;;;;;;;23.60;78.80;94614.47;5015112;28;20183;-84
2023/06/26 05:02:48;;;;;;;12.57;10.20;;;;;;;23.63;77.61;94586.16;5015305;28;20176;-84
2023/06/26 05:05:13;;;;;;;13.73;10.15;;;;;;;23.52;77.18;94555.22;5015302;28;20883;-83
2023/06/26 05:07:41;;;;;;;13.00;9.82;;;;;;;23.59;76.16;94571.75;5015237;28;20153;-84
2023/06/26 05:10:07;;;;;;;13.13;10.23;;;;;;;23.89;76.90;94610.66;5015220;28;20177;-84
2023/06/26 05:12:33;;;;;;;12.48;10.55;;;;;;;23.78;76.46;94595.84;5015677;28;20537;-84
2023/06/26 05:14:58;;;;;;;15.05;10.55;;;;;;;24.08;76.54;94611.31;5015173;28;20630;-84
2023/06/26 05:17:24;;;;;;;12.60;10.65;;;;;;;24.22;75.62;94597.88;5013867;28;20212;-84
2023/06/26 05:19:49;;;;;;;10.98;9.35;;;;;;;24.65;73.18;94641.34;5015048;28;20172;-84
2023/06/26 05:22:16;;;;;;;16.73;9.88;;;;;;;24.38;74.65;94574.94;5015115;28;20649;-84
2023/06/26 05:24:46;;;;;;;15.57;10.35;;;;;;;24.86;73.76;94638.97;5015078;28;20185;-84
2023/06/26 05:27:19;;;;;;;9.57;8.40;;;;;;;24.68;72.47;94651.50;5014962;28;20169;-85
2023/06/26 05:29:44;;;;;;;11.25;9.63;;;;;;;24.15;72.61;94605.53;5013725;28;20169;-85
2023/06/26 05:32:11;;;;;;;11.85;9.13;;;;;;;24.01;74.06;94627.88;5014685;28;20176;-86
2023/06/26 05:34:37;;;;;;;12.25;11.05;;;;;;;23.57;75.33;94595.44;5014798;28;20273;-86
2023/06/26 05:37:04;;;;;;;15.07;10.50;;;;;;;23.59;75.81;94634.34;5014674;28;20164;-86
2023/06/26 05:39:30;;;;;;;12.57;10.30;;;;;;;23.43;77.10;94632.22;5013930;28;20164;-86
2023/06/26 05:41:56;;;;;;;13.57;11.20;;;;;;;22.99;76.64;94595.13;5013797;28;20175;-86
2023/06/26 05:44:21;;;;;;;20.95;12.57;;;;;;;23.27;78.04;94653.97;5013729;28;20235;-86
2023/06/26 05:46:47;;;;;;;19.27;14.07;;;;;;;23.10;79.26;94631.44;5014169;28;20250;-87
2023/06/26 05:49:12;;;;;;;16.58;9.30;;;;;;;23.27;78.94;94647.78;5014547;28;20172;-86
2023/06/26 05:51:38;;;;;;;13.45;9.85;;;;;;;22.92;78.55;94593.59;5029733;28;20235;-86
2023/06/26 05:54:04;;;;;;;12.38;9.23;;;;;;;22.83;78.40;94571.19;5014366;28;20183;-86
2023/06/26 05:56:30;;;;;;;12.57;10.05;;;;;;;23.08;77.25;94607.59;5013086;28;20228;-86
2023/06/26 05:58:57;;;;;;;10.98;9.30;;;;;;;23.12;77.60;94588.97;5014905;28;20518;-86
2023/06/26 06:01:23;;;;;;;11.07;9.25;;;;;;;23.68;78.08;94646.00;5013052;28;20590;-86
2023/06/26 06:03:48;;;;;;;12.15;9.93;;;;;;;23.83;76.82;94628.00;5014396;28;20165;-85
2023/06/26 06:06:15;;;;;;;12.50;9.45;;;;;;;24.08;75.95;94622.88;5013182;28;20179;-86
2023/06/26 06:08:41;;;;;;;12.27;9.38;;;;;;;24.26;74.62;94640.03;5028772;28;20180;-86
2023/06/26 06:11:06;;;;;;;11.63;9.60;;;;;;;24.19;75.29;94630.75;5013961;28;20250;-86
2023/06/26 06:13:32;;;;;;;12.13;10.18;;;;;;;24.57;77.04;94663.56;5029280;28;20602;-86
2023/06/26 06:15:57;;;;;;;12.70;8.88;;;;;;;24.41;74.24;94628.94;5012701;28;20176;-86
2023/06/26 06:18:23;;;;;;;17.95;10.32;;;;;;;24.31;74.37;94575.31;5012625;28;20598;-86
2023/06/26 06:20:48;;;;;;;11.73;8.65;;;;;;;24.79;72.86;94610.56;5012808;28;20183;-86
2023/06/26 06:23:14;;;;;;;10.80;8.07;;;;;;;24.96;72.78;94631.47;5013205;28;20608;-86
2023/06/26 06:25:39;;;;;;;11.60;9.18;;;;;;;25.09;72.94;94617.13;5012801;28;20264;-85
2023/06/26 06:28:05;;;;;;;13.25;9.45;;;;;;;25.26;73.43;94643.38;5013235;28;20715;-84
2023/06/26 06:30:30;;;;;;;10.60;9.07;;;;;;;25.12;72.18;94607.63;5013506;28;20177;-87
2023/06/26 06:32:56;;;;;;;12.27;9.13;;;;;;;25.47;72.75;94655.25;5012869;28;20227;-88
2023/06/26 06:35:21;;;;;;;11.23;8.18;;;;;;;25.69;72.18;94638.25;5013107;28;20539;-87
2023/06/26 06:37:47;;;;;;;9.90;7.80;;;;;;;25.97;69.86;94619.16;5027998;28;20193;-83
2023/06/26 06:40:13;;;;;;;10.77;8.52;;;;;;;26.71;69.83;94663.16;5013333;28;20212;-84
2023/06/26 06:42:38;;;;;;;9.60;7.60;;;;;;;26.76;66.66;94610.88;5013615;28;20571;-82
2023/06/26 06:45:05;;;;;;;8.35;7.40;;;;;;;27.37;64.95;94653.75;5013707;28;20680;-81
2023/06/26 06:47:31;;;;;;;12.43;7.47;;;;;;;27.61;65.23;94631.59;5013752;28;20504;-84
2023/06/26 06:49:57;;;;;;;8.32;7.30;;;;;;;27.66;62.10;94611.72;5013437;28;20311;-85
2023/06/26 06:52:22;;;;;;;9.80;7.45;;;;;;;27.86;62.76;94613.69;5013871;28;20184;-85
2023/06/26 06:54:55;;;;;;;9.02;6.88;;;;;;;28.34;63.89;94653.13;5013625;28;20148;-86
2023/06/26 06:57:21;;;;;;;8.57;7.68;;;;;;;28.53;61.38;94650.78;5013225;28;20621;-84
2023/06/26 06:59:48;;;;;;;9.15;7.28;;;;;;;28.59;59.97;94643.25;5013313;28;20171;-83
2023/06/26 07:02:14;;;;;;;7.57;6.50;;;;;;;28.37;62.14;94601.00;5013199;28;20153;-84
2023/06/26 07:04:39;;;;;;;8.85;6.47;;;;;;;28.46;61.77;94586.25;5012269;28;20254;-84
2023/06/26 07:07:05;;;;;;;9.07;6.65;;;;;;;28.49;59.69;94563.16;5012352;28;20260;-84
2023/06/26 07:09:30;;;;;;;8.68;6.55;;;;;;;29.13;60.53;94638.69;5010846;28;20176;-84
2023/06/26 07:11:56;;;;;;;7.63;5.78;;;;;;;29.30;59.95;94624.97;5012295;28;20222;-84
2023/06/26 07:14:21;;;;;;;6.07;5.45;;;;;;;29.65;57.01;94630.84;5011739;28;20698;-85
2023/06/26 07:16:46;;;;;;;6.57;5.28;;;;;;;29.94;56.71;94638.81;5012199;28;20180;-82
2023/06/26 07:19:12;;;;;;;6.10;5.00;;;;;;;30.15;57.09;94635.22;5011477;28;20248;-81
2023/06/26 07:21:37;;;;;;;8.73;5.40;;;;;;;30.29;53.35;94647.31;5011771;28;20196;-82
2023/06/26 07:24:03;;;;;;;9.35;5.25;;;;;;;30.23;55.05;94613.38;5012472;28;20165;-90
2023/06/26 07:26:28;;;;;;;7.10;5.15;;;;;;;30.30;54.53;94640.75;5011557;28;20715;-87
2023/06/26 07:28:56;;;;;;;8.20;6.32;;;;;;;29.95;53.57;94593.47;5012769;28;20164;-86
2023/06/26 07:31:22;;;;;;;6.72;5.10;;;;;;;29.79;54.17;94598.75;5012882;28;20204;-88
2023/06/26 07:33:47;;;;;;;7.97;5.70;;;;;;;29.56;54.34;94595.66;5012709;28;20245;-87
2023/06/26 07:36:12;;;;;;;7.97;5.60;;;;;;;29.48;55.68;94574.06;5011346;28;20175;-87
2023/06/26 07:38:38;;;;;;;7.28;5.72;;;;;;;29.39;54.64;94574.16;5012881;28;20165;-89
2023/06/26 07:41:03;;;;;;;7.70;6.22;;;;;;;29.52;56.51;94585.81;5012577;28;20161;-88
2023/06/26 07:43:29;;;;;;;9.15;6.32;;;;;;;29.19;55.29;94574.97;5012555;28;20172;-87
2023/06/26 07:45:54;;;;;;;10.00;5.85;;;;;;;29.27;54.92;94634.56;5013143;28;20215;-85
2023/06/26 07:48:19;;;;;;;6.47;5.88;;;;;;;28.94;55.30;94598.50;5012293;28;20169;-86
2023/06/26 07:50:45;;;;;;;9.75;5.70;;;;;;;28.89;55.68;94606.84;5011424;28;20184;-86
2023/06/26 07:53:10;;;;;;;10.60;5.57;;;;;;;28.50;56.46;94568.25;5026513;28;20195;-87
2023/06/26 07:55:36;;;;;;;7.63;4.72;;;;;;;28.57;54.36;94635.44;5011328;28;20171;-80
2023/06/26 07:58:01;;;;;;;9.35;5.78;;;;;;;27.95;59.38;94590.06;5011609;28;20319;-89
2023/06/26 08:00:26;;;;;;;10.15;6.18;;;;;;;28.03;58.71;94572.19;5012644;28;20156;-89
2023/06/26 08:02:52;;;;;;;5.40;4.80;;;;;;;28.30;57.16;94587.19;5011200;28;20226;-89
2023/06/26 08:05:18;;;;;;;7.22;5.38;;;;;;;28.08;57.82;94583.63;5012223;28;20184;-90
2023/06/26 08:07:44;;;;;;;8.13;5.47;;;;;;;28.17;59.48;94626.94;5012559;28;20164;-82
2023/06/26 08:10:10;;;;;;;7.68;5.15;;;;;;;27.88;60.68;94573.56;5012179;28;20187;-80
2023/06/26 08:12:36;;;;;;;14.07;6.03;;;;;;;28.05;59.19;94580.78;5012361;28;20156;-82
2023/06/26 08:15:02;;;;;;;8.15;4.72;;;;;;;28.19;59.94;94618.50;5011478;28;20191;-81
2023/06/26 08:17:28;;;;;;;7.68;5.20;;;;;;;28.10;57.41;94611.19;5011327;28;20610;-81
2023/06/26 08:19:53;;;;;;;8.02;5.22;;;;;;;27.63;58.53;94590.69;5012147;28;20182;-83
2023/06/26 08:22:19;;;;;;;9.07;4.88;;;;;;;27.46;60.41;94609.66;5011189;28;20279;-82
2023/06/26 08:24:44;;;;;;;15.60;5.25;;;;;;;27.55;63.42;94621.28;5009732;28;20197;-82
2023/06/26 08:27:10;;;;;;;9.30;5.00;;;;;;;27.65;64.96;94631.75;5011234;28;20176;-77
2023/06/26 08:29:35;;;;;;;10.82;5.80;;;;;;;27.67;63.16;94597.88;5011754;28;20169;-81
2023/06/26 08:32:02;;;;;;;6.38;4.50;;;;;;;27.89;59.82;94604.91;5014116;28;20167;-82
2023/06/26 08:34:27;;;;;;;10.38;4.88;;;;;;;28.04;58.32;94615.19;5015154;28;20267;-82
2023/06/26 08:36:53;;;;;;;10.13;4.97;;;;;;;28.02;61.66;94608.53;5014291;28;20629;-83
2023/06/26 08:39:18;;;;;;;9.07;4.82;;;;;;;27.71;57.67;94560.91;5012325;28;20188;-83
2023/06/26 08:41:44;;;;;;;8.40;5.38;;;;;;;28.03;57.88;94627.13;5012121;28;20653;-83
2023/06/26 08:44:10;;;;;;;8.93;4.97;;;;;;;27.91;61.09;94577.53;5012007;28;20180;-83
2023/06/26 08:46:36;;;;;;;6.55;4.38;;;;;;;28.23;60.34;94595.84;5010990;28;20212;-83
2023/06/26 08:49:17;;;;;;;6.15;4.95;;;;;;;28.66;59.19;94617.19;5010409;28;20180;-83
2023/06/26 08:51:52;;;;;;;8.50;5.10;;;;;;;28.83;57.78;94632.56;5010221;28;20181;-83
2023/06/26 08:54:28;;;;;;;7.80;5.18;;;;;;;28.50;58.98;94594.53;5010800;28;20171;-83
2023/06/26 08:56:55;;;;;;;9.50;4.80;;;;;;;28.49;54.88;94634.38;5010713;28;20227;-83
2023/06/26 08:59:21;;;;;;;4.85;3.90;;;;;;;28.15;55.98;94639.97;5010980;28;20172;-83
2023/06/26 09:01:47;;;;;;;13.95;9.60;;;;;;;28.05;59.83;94624.09;5010009;28;20267;-83
2023/06/26 09:04:13;;;;;;;10.57;8.45;;;;;;;27.63;56.83;94594.22;5011785;28;20181;-84
2023/06/26 09:06:39;;;;;;;13.57;7.32;;;;;;;27.46;59.37;94601.56;5011705;28;20188;-83
2023/06/26 09:09:04;;;;;;;8.90;7.32;;;;;;;27.31;60.08;94625.31;5012149;28;20172;-83
2023/06/26 09:11:30;;;;;;;7.70;6.60;;;;;;;26.75;61.09;94569.53;5011465;28;20238;-83
2023/06/26 09:13:55;;;;;;;5.88;4.88;;;;;;;27.08;63.62;94623.91;5011829;28;20180;-83
2023/06/26 09:16:26;;;;;;;7.00;4.88;;;;;;;26.78;63.57;94573.53;5011437;28;20199;-83
2023/06/26 09:18:53;;;;;;;6.55;4.78;;;;;;;27.03;63.29;94580.84;5011699;28;20788;-83
2023/06/26 09:21:18;;;;;;;9.25;4.85;;;;;;;27.20;62.41;94580.78;5011244;28;20195;-82
2023/06/26 09:23:44;;;;;;;6.55;5.10;;;;;;;27.64;62.90;94613.94;5026410;28;20650;-83
2023/06/26 09:26:10;;;;;;;10.07;5.50;;;;;;;27.76;60.57;94595.88;5011250;28;20399;-82
2023/06/26 09:28:36;;;;;;;10.18;6.07;;;;;;;27.77;61.32;94581.25;5011080;28;20259;-83
2023/06/26 09:31:06;;;;;;;9.32;5.88;;;;;;;28.09;59.40;94606.09;5011265;28;20803;-82
2023/06/26 09:33:38;;;;;;;9.00;5.53;;;;;;;27.82;57.25;94591.09;5011090;28;20694;-83
2023/06/26 09:36:19;;;;;;;5.53;4.97;;;;;;;27.44;57.37;94558.59;5011381;28;20179;-82
2023/06/26 09:38:44;;;;;;;5.50;5.00;;;;;;;27.31;58.57;94571.22;5011039;28;20172;-83
2023/06/26 09:41:09;;;;;;;8.75;4.53;;;;;;;27.42;61.92;94604.09;5012107;28;20188;-84
2023/06/26 09:43:46;;;;;;;7.50;4.43;;;;;;;27.46;59.95;94613.16;5011586;28;20169;-82
2023/06/26 09:46:16;;;;;;;5.95;4.60;;;;;;;27.42;61.03;94609.50;5011743;28;20293;-83
2023/06/26 09:48:41;;;;;;;11.13;4.60;;;;;;;27.46;60.93;94612.38;5012588;28;20229;-83
2023/06/26 09:51:07;;;;;;;5.68;5.07;;;;;;;27.39;56.87;94616.38;5013157;28;20267;-83
2023/06/26 09:53:35;;;;;;;9.82;5.18;;;;;;;27.07;60.41;94579.06;5011887;28;20177;-83
2023/06/26 09:56:06;;;;;;;13.23;4.53;;;;;;;27.45;61.07;94611.56;5011894;28;20220;-83
2023/06/26 09:58:32;;;;;;;5.90;4.70;;;;;;;27.46;59.50;94599.66;5012207;28;20173;-81
2023/06/26 10:00:58;;;;;;;6.28;4.07;;;;;;;27.41;55.95;94591.72;5012815;28;20176;-81
2023/06/26 10:03:23;;;;;;;9.40;4.72;;;;;;;27.61;57.44;94622.69;5013468;28;20168;-81
2023/06/26 10:05:49;;;;;;;5.13;3.92;;;;;;;27.40;58.83;94588.22;5013891;28;20188;-83
2023/06/26 10:08:17;;;;;;;5.47;4.35;;;;;;;27.71;58.56;94604.19;5014086;28;20168;-84
2023/06/26 10:10:44;;;;;;;5.55;3.92;;;;;;;27.71;58.94;94593.38;5012704;28;20172;-83
2023/06/26 10:13:19;;;;;;;7.43;4.03;;;;;;;27.95;56.12;94616.34;5013775;28;20184;-83
2023/06/26 10:15:46;;;;;;;7.40;4.82;;;;;;;27.75;58.38;94583.50;5014014;28;20183;-81
2023/06/26 10:18:13;;;;;;;7.75;3.90;;;;;;;27.91;57.10;94612.72;5013692;28;20596;-82
2023/06/26 10:20:40;;;;;;;4.80;4.30;;;;;;;27.58;56.73;94566.56;5027626;28;20176;-82
2023/06/26 10:23:07;;;;;;;9.35;4.57;;;;;;;27.52;54.79;94587.53;5012473;28;20259;-81
2023/06/26 10:25:39;;;;;;;5.53;4.60;;;;;;;27.42;56.55;94607.59;5012060;28;20204;-82
2023/06/26 10:28:05;;;;;;;8.73;4.68;;;;;;;27.22;58.45;94602.09;5012267;28;20180;-83
2023/06/26 10:30:34;;;;;;;4.65;4.00;;;;;;;27.19;57.33;94614.34;5011084;28;20168;-82
2023/06/26 10:33:02;;;;;;;4.70;4.20;;;;;;;26.81;56.25;94581.00;5012087;28;20620;-82
2023/06/26 10:35:28;;;;;;;8.82;4.35;;;;;;;26.53;56.87;94569.72;5012552;28;20176;-83
2023/06/26 10:38:00;;;;;;;5.35;4.55;;;;;;;26.71;57.06;94611.03;5011940;28;20172;-82
2023/06/26 10:40:28;;;;;;;10.38;5.35;;;;;;;26.40;56.16;94571.47;5011816;28;20618;-83
2023/06/26 10:43:09;;;;;;;7.22;4.80;;;;;;;26.60;58.31;94615.97;5011635;28;20182;-81
2023/06/26 10:45:36;;;;;;;9.60;4.60;;;;;;;26.56;59.80;94598.78;5012465;28;20677;-81
2023/06/26 10:48:02;;;;;;;7.30;4.82;;;;;;;26.66;59.66;94601.97;5012543;28;20200;-80
2023/06/26 10:50:32;;;;;;;7.20;4.57;;;;;;;26.73;58.19;94609.59;5011943;28;20204;-80
2023/06/26 10:53:11;;;;;;;11.48;5.20;;;;;;;26.70;59.22;94612.94;5009678;28;20666;-80
2023/06/26 10:55:37;;;;;;;11.80;4.70;;;;;;;26.38;58.08;94560.19;5009685;28;20719;-80
2023/06/26 10:58:03;;;;;;;7.68;4.22;;;;;;;26.58;59.76;94600.06;5009651;28;20228;-80
2023/06/26 11:00:28;;;;;;;5.35;4.70;;;;;;;26.62;61.12;94595.63;5009729;28;20195;-80
2023/06/26 11:02:54;;;;;;;14.48;5.68;;;;;;;26.72;57.81;94601.81;5009242;28;20181;-80
2023/06/26 11:05:33;;;;;;;6.43;4.45;;;;;;;26.60;56.05;94599.75;5009505;28;20203;-80
2023/06/26 11:08:07;;;;;;;6.47;4.68;;;;;;;26.57;57.92;94603.06;5009374;28;20187;-80
2023/06/26 11:10:48;;;;;;;14.20;5.28;;;;;;;26.37;57.60;94561.31;5009455;28;20187;-80
2023/06/26 11:13:14;;;;;;;11.10;5.00;;;;;;;26.57;58.45;94600.38;5009273;28;20182;-80
2023/06/26 11:15:43;;;;;;;7.32;4.28;;;;;;;26.55;58.61;94598.00;5009281;28;20169;-80
2023/06/26 11:18:09;;;;;;;8.95;5.05;;;;;;;26.38;57.71;94576.38;5009369;28;20279;-80
2023/06/26 11:20:34;;;;;;;10.73;5.60;;;;;;;26.44;56.12;94606.72;5009074;28;20620;-80
2023/06/26 11:23:00;;;;;;;5.82;3.83;;;;;;;26.36;56.68;94594.03;5009205;28;20179;-80
2023/06/26 11:25:26;;;;;;;11.00;5.05;;;;;;;26.31;57.51;94594.97;5009144;28;20575;-80
2023/06/26 11:27:53;;;;;;;7.93;4.40;;;;;;;26.25;57.88;94590.78;5008968;28;20215;-80